Time;durP1;ratioP1;P1;durP2;ratioP2;P2;SDS_P1;SDS_P2;PMS_P1;PMS_P2;Temp;Humidity;BMP_temperature;BMP_pressure;BME280_temperature;BME280_humidity;BME280_pressure;Samples;Min_cycle;Max_cycle;Signal;HPM_P1;HPM_P2
2024/04/02 00:01:27;;;;;;;13.10;3.10;;;;;;;12.07;78.20;98945.93;82031;1295;3011286;-61
2024/04/02 00:03:59;;;;;;;17.70;3.70;;;;;;;12.01;78.64;98938.11;80699;1295;3052392;-63
2024/04/02 00:06:26;;;;;;;20.20;4.10;;;;;;;11.92;79.10;98938.92;81919;1298;3011536;-63
2024/04/02 00:08:54;;;;;;;9.50;2.80;;;;;;;12.28;78.21;98929.38;80728;1301;3051667;-63
2024/04/02 00:11:20;;;;;;;12.80;2.50;;;;;;;12.68;76.01;98925.52;82029;1295;3012533;-62
2024/04/02 00:13:47;;;;;;;12.40;3.20;;;;;;;12.62;76.00;98929.95;81975;1295;3011117;-62
2024/04/02 00:16:15;;;;;;;9.70;3.40;;;;;;;12.48;76.49;98927.73;80704;1301;3025904;-63
2024/04/02 00:18:41;;;;;;;13.00;3.10;;;;;;;12.27;77.53;98925.95;81964;1295;3013174;-62
2024/04/02 00:21:08;;;;;;;15.40;3.10;;;;;;;12.01;79.42;98927.23;82039;1295;3011480;-62
2024/04/02 00:23:35;;;;;;;16.50;3.80;;;;;;;11.88;80.16;98919.38;80688;1300;3025727;-61
2024/04/02 00:26:02;;;;;;;13.50;3.70;;;;;;;11.86;80.44;98914.83;82000;1295;3012680;-62
2024/04/02 00:28:29;;;;;;;19.50;3.90;;;;;;;11.75;81.14;98913.34;81986;1295;3011521;-61
2024/04/02 00:31:00;;;;;;;16.40;3.30;;;;;;;11.66;81.88;98916.66;80717;1296;3027107;-61
2024/04/02 00:33:28;;;;;;;20.00;3.40;;;;;;;12.02;80.73;98916.06;82000;1296;3011776;-61
2024/04/02 00:36:06;;;;;;;19.10;3.60;;;;;;;12.12;79.76;98912.66;80720;1295;3053801;-62
2024/04/02 00:38:33;;;;;;;14.90;3.80;;;;;;;12.03;80.00;98911.29;80701;1296;3049889;-62
2024/04/02 00:41:00;;;;;;;14.10;3.30;;;;;;;11.96;80.42;98908.30;82033;1298;3018650;-62
2024/04/02 00:43:27;;;;;;;13.90;3.70;;;;;;;11.86;80.96;98908.27;81984;1295;3011126;-64
2024/04/02 00:45:55;;;;;;;14.50;3.70;;;;;;;11.75;81.42;98902.77;80716;1296;3025958;-61
2024/04/02 00:48:22;;;;;;;20.10;4.20;;;;;;;11.57;82.36;98899.38;81999;1295;3018363;-61
2024/04/02 00:50:48;;;;;;;19.30;3.80;;;;;;;11.46;83.01;98896.52;81964;1295;3011172;-62
2024/04/02 00:53:16;;;;;;;17.50;3.30;;;;;;;11.36;83.63;98897.42;80690;1295;3026087;-61
2024/04/02 00:55:43;;;;;;;17.80;3.40;;;;;;;11.68;82.62;98894.36;81866;1302;3017958;-62
2024/04/02 00:58:10;;;;;;;18.40;3.50;;;;;;;11.90;81.02;98897.02;81967;1296;3011409;-61
2024/04/02 01:00:40;;;;;;;20.60;3.80;;;;;;;11.87;81.31;98896.86;80731;1297;3053149;-62
2024/04/02 01:03:06;;;;;;;14.30;3.60;;;;;;;11.67;81.92;98897.10;81957;1299;3013474;-62
2024/04/02 01:05:34;;;;;;;8.30;3.30;;;;;;;11.58;82.46;98897.92;81991;1295;3011400;-61
2024/04/02 01:08:03;;;;;;;18.70;4.10;;;;;;;11.52;82.79;98892.58;80746;1296;3049925;-59
2024/04/02 01:10:32;;;;;;;20.70;4.10;;;;;;;11.25;84.59;98895.98;81983;1295;3012785;-60
2024/04/02 01:13:01;;;;;;;14.20;3.90;;;;;;;11.18;85.34;98886.64;81419;1300;3011311;-62
2024/04/02 01:15:28;;;;;;;16.90;3.90;;;;;;;11.17;85.83;98883.19;82020;1296;3017871;-61
2024/04/02 01:17:54;;;;;;;21.10;3.50;;;;;;;11.49;84.31;98883.52;81975;1295;3011157;-60
2024/04/02 01:20:22;;;;;;;17.00;3.80;;;;;;;11.61;83.37;98885.97;80744;1295;3025733;-62
2024/04/02 01:22:49;;;;;;;13.20;3.30;;;;;;;11.57;83.09;98878.50;81994;1295;3018382;-63
2024/04/02 01:25:22;;;;;;;18.90;3.60;;;;;;;11.50;83.63;98875.34;81989;1296;3011389;-61
2024/04/02 01:27:50;;;;;;;18.70;3.70;;;;;;;11.46;83.59;98874.41;80741;1300;3054248;-62
2024/04/02 01:30:17;;;;;;;22.90;3.40;;;;;;;11.28;84.38;98878.70;81979;1299;3012936;-61
2024/04/02 01:32:43;;;;;;;18.10;4.60;;;;;;;11.23;85.16;98876.30;81963;1295;3011294;-61
2024/04/02 01:35:14;;;;;;;17.00;3.90;;;;;;;11.17;85.34;98881.96;80708;1296;3026773;-62
2024/04/02 01:37:41;;;;;;;18.10;3.80;;;;;;;11.44;84.27;98875.60;81954;1296;3010860;-62
2024/04/02 01:40:10;;;;;;;25.10;4.10;;;;;;;11.73;82.71;98871.77;81462;1296;3011394;-60
2024/04/02 01:42:36;;;;;;;20.00;5.20;;;;;;;11.77;81.97;98882.13;82007;1301;3012760;-62
2024/04/02 01:45:03;;;;;;;19.50;4.10;;;;;;;11.75;82.07;98878.64;81990;1298;3011249;-61
2024/04/02 01:47:31;;;;;;;20.20;4.00;;;;;;;11.48;83.08;98884.27;80726;1296;3051096;-61
2024/04/02 01:49:58;;;;;;;24.30;4.00;;;;;;;11.49;83.34;98880.48;82047;1295;3013045;-63
2024/04/02 01:52:24;;;;;;;12.40;3.30;;;;;;;11.40;83.77;98869.64;81976;1295;3011203;-60
2024/04/02 01:54:52;;;;;;;25.80;4.00;;;;;;;11.39;83.76;98872.51;80756;1296;3025234;-61
2024/04/02 01:57:19;;;;;;;17.30;3.70;;;;;;;11.32;84.40;98873.02;82021;1295;3018295;-62
2024/04/02 01:59:45;;;;;;;20.90;3.30;;;;;;;11.80;82.43;98868.77;81983;1296;3011250;-62
2024/04/02 02:02:13;;;;;;;15.50;4.60;;;;;;;12.09;80.41;98862.59;80706;1301;3025795;-61
2024/04/02 02:04:39;;;;;;;21.20;3.80;;;;;;;12.14;80.02;98865.36;81990;1296;3012676;-63
2024/04/02 02:07:06;;;;;;;31.00;4.80;;;;;;;12.05;80.10;98863.02;82005;1295;3011100;-61
2024/04/02 02:09:34;;;;;;;17.20;3.80;;;;;;;11.91;81.07;98865.88;80711;1295;3026741;-61
2024/04/02 02:12:01;;;;;;;18.60;3.70;;;;;;;11.79;81.44;98868.31;82019;1298;3018608;-66
2024/04/02 02:14:27;;;;;;;25.50;4.60;;;;;;;11.80;81.42;98868.59;81974;1301;3011362;-62
2024/04/02 02:16:55;;;;;;;23.30;5.10;;;;;;;11.71;81.59;98865.92;80750;1295;3025815;-61
2024/04/02 02:19:22;;;;;;;25.20;4.70;;;;;;;11.63;82.20;98871.80;82000;1302;3012580;-61
2024/04/02 02:21:48;;;;;;;21.30;3.40;;;;;;;11.58;82.63;98869.89;81968;1295;3010968;-60
2024/04/02 02:24:16;;;;;;;30.60;4.50;;;;;;;11.93;81.09;98869.21;80732;1295;3025979;-61
2024/04/02 02:26:42;;;;;;;22.60;4.30;;;;;;;12.19;79.83;98867.92;82046;1303;3018077;-64
2024/04/02 02:29:09;;;;;;;22.20;5.10;;;;;;;12.16;79.46;98866.27;82026;1295;3011616;-62
2024/04/02 02:31:38;;;;;;;21.20;3.60;;;;;;;12.05;79.72;98865.30;80760;1295;3026322;-62
2024/04/02 02:34:05;;;;;;;28.30;4.50;;;;;;;11.93;80.03;98862.02;82018;1296;3013017;-61
2024/04/02 02:36:31;;;;;;;23.60;4.50;;;;;;;11.84;80.20;98869.15;82068;1295;3011378;-61
2024/04/02 02:38:59;;;;;;;31.80;4.90;;;;;;;11.72;81.27;98864.09;80764;1295;3049291;-61
2024/04/02 02:41:26;;;;;;;25.90;5.50;;;;;;;11.66;81.11;98866.98;82029;1301;3018059;-62
2024/04/02 02:43:52;;;;;;;30.00;5.70;;;;;;;11.57;81.63;98864.88;82014;1295;3011417;-62
2024/04/02 02:46:21;;;;;;;23.90;4.10;;;;;;;11.47;82.23;98860.86;80772;1295;3025934;-62
2024/04/02 02:48:47;;;;;;;24.80;4.00;;;;;;;11.93;80.35;98862.21;82041;1295;3011150;-63
2024/04/02 02:51:14;;;;;;;18.00;4.20;;;;;;;12.14;78.62;98868.21;82039;1295;3011589;-60
2024/04/02 02:53:42;;;;;;;18.80;5.00;;;;;;;12.25;77.92;98859.54;80749;1295;3049069;-62
2024/04/02 02:56:08;;;;;;;25.70;5.60;;;;;;;12.23;77.71;98858.89;82050;1295;3013034;-60
2024/04/02 02:58:35;;;;;;;21.10;4.50;;;;;;;12.03;78.65;98857.91;82016;1295;3011434;-62
2024/04/02 03:01:06;;;;;;;31.80;5.10;;;;;;;12.03;78.75;98857.77;80743;1295;3026289;-63
2024/04/02 03:03:32;;;;;;;23.80;5.80;;;;;;;11.92;79.14;98859.06;81982;1295;3011483;-60
2024/04/02 03:06:01;;;;;;;28.10;6.00;;;;;;;11.83;79.29;98860.27;81507;1295;3011641;-61
2024/04/02 03:08:28;;;;;;;24.90;6.80;;;;;;;11.65;80.30;98858.98;82050;1295;3018288;-61
2024/04/02 03:10:56;;;;;;;28.70;5.90;;;;;;;11.49;80.94;98857.05;82001;1295;3011275;-62
2024/04/02 03:13:24;;;;;;;23.40;6.00;;;;;;;11.58;80.67;98852.16;80769;1295;3052127;-61
2024/04/02 03:15:51;;;;;;;25.10;5.30;;;;;;;11.53;80.93;98853.22;82060;1295;3012791;-61
2024/04/02 03:18:17;;;;;;;28.50;4.90;;;;;;;11.99;79.52;98850.52;81990;1295;3011150;-61
2024/04/02 03:20:45;;;;;;;30.20;6.50;;;;;;;12.32;77.15;98843.78;80767;1295;3025659;-61
2024/04/02 03:23:12;;;;;;;28.70;5.80;;;;;;;12.23;77.46;98849.20;82030;1295;3013127;-62
2024/04/02 03:25:39;;;;;;;24.30;5.50;;;;;;;12.27;77.11;98845.43;81986;1295;3011367;-62
2024/04/02 03:28:06;;;;;;;27.90;5.90;;;;;;;12.14;77.20;98846.22;80773;1295;3026339;-61
2024/04/02 03:30:33;;;;;;;23.70;5.70;;;;;;;12.11;77.63;98846.94;82057;1295;3013335;-62
2024/04/02 03:33:00;;;;;;;29.20;5.40;;;;;;;12.14;77.38;98836.40;82007;1295;3011210;-61
2024/04/02 03:35:28;;;;;;;32.70;5.50;;;;;;;11.99;77.90;98834.02;80760;1295;3026672;-61
2024/04/02 03:37:54;;;;;;;25.30;6.00;;;;;;;11.94;78.09;98838.41;82066;1295;3012694;-62
2024/04/02 03:40:21;;;;;;;26.10;5.50;;;;;;;11.79;78.86;98830.93;82001;1295;3011339;-61
2024/04/02 03:42:48;;;;;;;27.20;6.80;;;;;;;11.73;78.70;98834.02;80725;1295;3025918;-62
2024/04/02 03:45:15;;;;;;;22.10;6.20;;;;;;;11.66;79.31;98831.73;82045;1295;3011238;-61
2024/04/02 03:47:42;;;;;;;22.90;5.50;;;;;;;11.64;79.18;98830.85;82012;1295;3011234;-64
2024/04/02 03:50:10;;;;;;;35.80;5.60;;;;;;;11.59;79.53;98829.42;80696;1295;3026217;-62
2024/04/02 03:52:36;;;;;;;30.50;5.80;;;;;;;12.10;77.74;98822.48;82024;1296;3013099;-67
2024/04/02 03:55:03;;;;;;;26.90;5.80;;;;;;;12.46;75.50;98822.33;82006;1295;3011358;-61
2024/04/02 03:57:31;;;;;;;25.60;6.70;;;;;;;12.61;74.99;98825.02;80747;1295;3026660;-60
2024/04/02 03:59:58;;;;;;;27.10;6.00;;;;;;;12.42;75.32;98824.24;82037;1295;3018252;-64
2024/04/02 04:02:24;;;;;;;28.00;6.30;;;;;;;12.32;75.54;98825.46;82044;1295;3011433;-62
2024/04/02 04:04:52;;;;;;;25.90;7.40;;;;;;;12.18;75.97;98824.27;80783;1295;3025075;-62
2024/04/02 04:07:19;;;;;;;36.00;7.40;;;;;;;12.05;76.51;98830.39;82023;1296;3017850;-62
2024/04/02 04:09:48;;;;;;;31.40;7.00;;;;;;;11.97;77.02;98829.29;82049;1295;3011253;-62
2024/04/02 04:12:16;;;;;;;30.20;7.80;;;;;;;11.82;77.60;98831.92;80793;1295;3050630;-61
2024/04/02 04:14:47;;;;;;;33.70;6.70;;;;;;;11.84;77.38;98827.04;82054;1295;3018741;-61
2024/04/02 04:17:15;;;;;;;32.20;7.00;;;;;;;11.86;77.63;98821.60;80766;1295;3055950;-62
2024/04/02 04:19:41;;;;;;;25.40;7.40;;;;;;;11.84;77.49;98824.05;82049;1295;3018655;-61
2024/04/02 04:22:08;;;;;;;27.60;7.40;;;;;;;11.83;77.58;98826.61;82036;1295;3011478;-61
2024/04/02 04:24:35;;;;;;;35.50;7.50;;;;;;;11.85;76.95;98827.66;80787;1295;3026757;-63
2024/04/02 04:27:02;;;;;;;30.60;7.20;;;;;;;11.86;77.29;98830.41;82031;1301;3013430;-62
2024/04/02 04:29:29;;;;;;;34.60;7.30;;;;;;;11.88;76.91;98836.38;82017;1295;3011060;-61
2024/04/02 04:31:56;;;;;;;29.20;7.60;;;;;;;11.83;77.24;98837.66;80781;1295;3026572;-60
2024/04/02 04:34:23;;;;;;;26.50;7.50;;;;;;;11.72;77.50;98836.58;82056;1295;3010934;-61
2024/04/02 04:36:49;;;;;;;31.90;6.70;;;;;;;11.77;77.59;98833.85;81979;1295;3011299;-62
2024/04/02 04:39:17;;;;;;;25.70;6.10;;;;;;;12.32;75.73;98833.59;80741;1301;3026086;-65
2024/04/02 04:41:44;;;;;;;40.30;7.50;;;;;;;12.75;73.37;98835.10;82030;1295;3011156;-62
2024/04/02 04:44:10;;;;;;;40.50;7.60;;;;;;;12.67;73.57;98832.45;81998;1295;3011144;-60
2024/04/02 04:46:38;;;;;;;38.30;8.60;;;;;;;12.60;73.41;98830.89;80737;1295;3025805;-60
2024/04/02 04:49:05;;;;;;;32.40;7.40;;;;;;;12.38;73.94;98824.68;82019;1295;3012804;-61
2024/04/02 04:51:32;;;;;;;33.20;7.00;;;;;;;12.43;73.72;98817.66;82045;1295;3011857;-61
2024/04/02 04:54:00;;;;;;;34.50;9.20;;;;;;;12.40;73.90;98815.92;80760;1295;3026429;-62
2024/04/02 04:56:26;;;;;;;34.70;8.40;;;;;;;12.37;73.48;98810.41;82040;1295;3012579;-62
2024/04/02 04:58:53;;;;;;;38.80;8.40;;;;;;;12.41;73.51;98805.86;81972;1295;3011365;-62
2024/04/02 05:01:21;;;;;;;36.90;7.70;;;;;;;12.36;73.46;98808.70;80730;1295;3026301;-62
2024/04/02 05:03:47;;;;;;;28.80;7.50;;;;;;;12.44;73.30;98801.39;81987;1295;3013063;-64
2024/04/02 05:06:13;;;;;;;41.40;8.60;;;;;;;12.54;72.85;98797.59;81970;1295;3011418;-61
2024/04/02 05:08:41;;;;;;;30.30;7.80;;;;;;;12.59;72.36;98795.63;80762;1298;3026137;-62
2024/04/02 05:11:08;;;;;;;32.90;10.10;;;;;;;12.58;72.60;98798.32;82011;1295;3013544;-63
2024/04/02 05:13:34;;;;;;;39.70;8.70;;;;;;;12.66;72.61;98788.95;82029;1295;3011104;-63
2024/04/02 05:16:04;;;;;;;38.70;7.20;;;;;;;12.62;72.56;98795.23;80761;1295;3026720;-63
2024/04/02 05:18:32;;;;;;;29.20;7.10;;;;;;;12.62;72.07;98783.27;82013;1295;3012700;-61
2024/04/02 05:21:03;;;;;;;36.10;8.20;;;;;;;12.72;72.12;98776.37;81475;1295;3011349;-64
2024/04/02 05:23:30;;;;;;;33.90;7.70;;;;;;;12.73;71.88;98783.67;82017;1295;3011742;-63
2024/04/02 05:25:59;;;;;;;44.00;9.50;;;;;;;12.78;71.48;98781.33;81488;1299;3011390;-65
2024/04/02 05:28:25;;;;;;;34.50;7.10;;;;;;;12.77;71.96;98782.63;82049;1295;3018165;-63
2024/04/02 05:30:53;;;;;;;37.00;7.50;;;;;;;12.95;71.13;98779.80;81980;1295;3011309;-64
2024/04/02 05:33:21;;;;;;;28.30;6.80;;;;;;;12.99;71.06;98780.19;80750;1295;3054182;-62
2024/04/02 05:35:47;;;;;;;27.00;6.70;;;;;;;13.12;70.18;98776.61;82038;1295;3012455;-62
2024/04/02 05:38:14;;;;;;;29.10;6.30;;;;;;;13.19;69.88;98776.09;81936;1295;3011481;-62
2024/04/02 05:40:41;;;;;;;30.20;6.40;;;;;;;13.30;69.34;98770.79;80761;1295;3025192;-63
2024/04/02 05:43:08;;;;;;;40.00;6.60;;;;;;;13.44;68.87;98767.70;82022;1295;3018131;-62
2024/04/02 05:45:35;;;;;;;32.50;6.60;;;;;;;13.48;68.47;98768.91;81999;1295;3011214;-63
2024/04/02 05:48:03;;;;;;;31.10;6.10;;;;;;;13.51;68.57;98774.65;80778;1295;3026483;-65
2024/04/02 05:50:30;;;;;;;30.20;6.30;;;;;;;13.73;66.98;98769.17;82009;1295;3012627;-65
2024/04/02 05:52:56;;;;;;;37.80;6.80;;;;;;;13.81;67.06;98774.08;82027;1295;3011530;-63
2024/04/02 05:55:24;;;;;;;28.10;6.70;;;;;;;13.84;67.04;98768.77;80733;1295;3024808;-63
2024/04/02 05:57:51;;;;;;;33.00;5.60;;;;;;;14.05;66.09;98765.73;82087;1295;3012948;-63
2024/04/02 06:00:17;;;;;;;35.30;6.80;;;;;;;14.13;65.60;98766.60;82053;1295;3011470;-63
2024/04/02 06:02:45;;;;;;;39.40;7.00;;;;;;;14.14;65.81;98760.00;80757;1295;3025947;-64
2024/04/02 06:05:12;;;;;;;29.80;5.90;;;;;;;14.22;64.34;98761.65;82037;1299;3018645;-62
2024/04/02 06:07:38;;;;;;;26.40;7.00;;;;;;;14.28;64.38;98761.48;82025;1295;3011476;-61
2024/04/02 06:10:06;;;;;;;41.60;6.80;;;;;;;14.38;63.82;98763.23;80769;1295;3025776;-61
2024/04/02 06:12:33;;;;;;;28.60;5.90;;;;;;;14.52;63.24;98759.73;82016;1295;3012834;-61
2024/04/02 06:14:59;;;;;;;27.20;6.20;;;;;;;14.56;63.10;98758.64;81998;1295;3011421;-63
2024/04/02 06:17:27;;;;;;;33.40;6.70;;;;;;;14.65;63.09;98751.33;80776;1295;3026328;-62
2024/04/02 06:19:54;;;;;;;32.60;5.40;;;;;;;14.68;62.13;98746.55;82041;1295;3018339;-61
2024/04/02 06:22:26;;;;;;;33.80;5.10;;;;;;;14.79;62.07;98737.77;82008;1295;3010906;-63
2024/04/02 06:24:54;;;;;;;33.70;6.90;;;;;;;14.78;62.18;98733.70;80765;1300;3051985;-64
2024/04/02 06:27:21;;;;;;;32.90;5.90;;;;;;;14.67;62.86;98735.89;82001;1295;3012735;-62
2024/04/02 06:29:47;;;;;;;37.00;5.40;;;;;;;14.76;62.57;98741.91;82036;1295;3011390;-61
2024/04/02 06:32:15;;;;;;;24.10;5.10;;;;;;;14.70;62.64;98750.75;80690;1295;3024859;-61
2024/04/02 06:34:42;;;;;;;22.80;5.30;;;;;;;14.73;62.68;98746.98;81999;1295;3013118;-64
2024/04/02 06:37:08;;;;;;;20.20;5.10;;;;;;;14.76;62.44;98745.95;81990;1295;3011500;-65
2024/04/02 06:39:36;;;;;;;34.50;6.40;;;;;;;14.71;62.45;98746.98;80735;1299;3025674;-62
2024/04/02 06:42:03;;;;;;;37.60;5.10;;;;;;;14.77;62.27;98744.45;82025;1295;3018860;-62
2024/04/02 06:44:30;;;;;;;26.90;5.30;;;;;;;14.97;61.86;98740.42;81987;1297;3011591;-63
2024/04/02 06:46:58;;;;;;;26.70;5.00;;;;;;;15.03;61.68;98740.36;80772;1295;3027112;-61
2024/04/02 06:49:25;;;;;;;35.10;5.30;;;;;;;15.06;61.06;98733.38;82013;1295;3018674;-63
2024/04/02 06:51:51;;;;;;;41.50;5.60;;;;;;;15.01;61.23;98731.26;81961;1295;3011281;-62
2024/04/02 06:54:19;;;;;;;29.10;6.40;;;;;;;15.11;60.66;98729.14;80754;1295;3026564;-64
2024/04/02 06:56:45;;;;;;;33.10;6.50;;;;;;;15.23;60.27;98730.11;82042;1295;3012628;-62
2024/04/02 06:59:12;;;;;;;28.30;5.30;;;;;;;15.47;59.81;98728.09;82008;1295;3012612;-62
2024/04/02 07:01:40;;;;;;;30.10;5.30;;;;;;;15.62;59.35;98719.45;80710;1295;3018049;-63
2024/04/02 07:04:07;;;;;;;31.30;5.10;;;;;;;15.83;59.03;98713.83;82034;1295;3012790;-63
2024/04/02 07:06:34;;;;;;;24.70;4.50;;;;;;;16.01;58.12;98719.20;81992;1295;3012469;-60
2024/04/02 07:09:01;;;;;;;24.20;4.40;;;;;;;16.12;57.62;98720.07;80739;1300;3044455;-62
2024/04/02 07:11:28;;;;;;;27.20;4.10;;;;;;;16.26;57.24;98723.41;82036;1295;3012796;-64
2024/04/02 07:13:54;;;;;;;25.40;4.50;;;;;;;16.28;56.68;98716.45;81975;1295;3011678;-62
2024/04/02 07:16:22;;;;;;;27.30;5.50;;;;;;;16.42;56.38;98710.55;80725;1295;3026390;-63
2024/04/02 07:18:49;;;;;;;22.90;4.80;;;;;;;16.40;55.82;98706.51;82044;1295;3013243;-63
2024/04/02 07:21:16;;;;;;;24.00;4.70;;;;;;;16.51;55.56;98703.45;82012;1295;3011391;-60
2024/04/02 07:23:43;;;;;;;26.30;5.00;;;;;;;16.64;55.39;98694.65;80720;1295;3025956;-61
2024/04/02 07:26:10;;;;;;;24.20;4.50;;;;;;;16.83;54.49;98694.50;81833;1295;3325180;-67
2024/04/02 07:28:37;;;;;;;25.70;4.40;;;;;;;16.94;54.22;98685.17;82043;1294;3011282;-64
2024/04/02 07:31:04;;;;;;;26.50;5.00;;;;;;;17.00;54.31;98686.30;80774;1295;3025987;-62
2024/04/02 07:33:31;;;;;;;17.80;3.90;;;;;;;17.20;53.40;98677.48;82036;1293;3018422;-62
2024/04/02 07:35:58;;;;;;;28.30;4.50;;;;;;;17.28;53.04;98676.30;82073;1295;3011686;-61
2024/04/02 07:38:25;;;;;;;31.80;4.30;;;;;;;17.30;52.95;98671.81;80828;1295;3026218;-61
2024/04/02 07:40:52;;;;;;;28.30;4.00;;;;;;;17.43;52.84;98661.48;82121;1294;3012905;-61
2024/04/02 07:43:18;;;;;;;23.10;3.90;;;;;;;17.55;52.35;98659.16;82136;1293;3011382;-62
2024/04/02 07:45:50;;;;;;;24.40;3.80;;;;;;;17.54;52.21;98655.63;80829;1293;3026000;-60
2024/04/02 07:48:17;;;;;;;28.70;4.10;;;;;;;17.61;52.26;98660.60;82091;1293;3012580;-62
2024/04/02 07:50:45;;;;;;;24.60;4.00;;;;;;;17.62;52.28;98654.92;80812;1295;3017225;-64
2024/04/02 07:53:11;;;;;;;20.30;3.70;;;;;;;17.65;51.77;98658.38;82110;1295;3012805;-61
2024/04/02 07:55:38;;;;;;;26.40;3.70;;;;;;;17.89;51.70;98655.90;82102;1295;3011450;-63
2024/04/02 07:58:06;;;;;;;26.70;4.20;;;;;;;18.05;51.05;98650.00;80839;1295;3017711;-62
2024/04/02 08:00:33;;;;;;;20.20;3.60;;;;;;;18.14;49.99;98635.95;82070;1294;3012528;-65
2024/04/02 08:02:59;;;;;;;28.20;4.10;;;;;;;18.16;49.92;98634.29;82072;1295;3011707;-61
2024/04/02 08:05:27;;;;;;;30.00;4.20;;;;;;;18.36;49.95;98628.08;80812;1295;3025738;-61
2024/04/02 08:07:54;;;;;;;29.60;4.00;;;;;;;18.60;49.38;98622.92;82078;1295;3012772;-60
2024/04/02 08:10:20;;;;;;;26.30;4.30;;;;;;;18.73;48.10;98619.30;82047;1295;3011357;-62
2024/04/02 08:12:48;;;;;;;25.10;3.60;;;;;;;18.79;48.11;98620.07;80824;1295;3067627;-63
2024/04/02 08:15:15;;;;;;;28.70;5.10;;;;;;;18.86;47.67;98625.30;82090;1294;3013185;-62
2024/04/02 08:17:42;;;;;;;28.90;4.20;;;;;;;18.98;47.54;98615.50;82081;1294;3010934;-60
2024/04/02 08:20:10;;;;;;;22.90;3.30;;;;;;;19.13;47.06;98608.95;80823;1298;3017063;-62
2024/04/02 08:22:37;;;;;;;24.50;4.10;;;;;;;19.27;46.67;98604.58;82136;1295;3012640;-63
2024/04/02 08:25:03;;;;;;;40.60;4.60;;;;;;;19.41;46.18;98607.30;82098;1295;3013260;-63
2024/04/02 08:27:32;;;;;;;28.70;3.70;;;;;;;19.36;45.78;98604.61;80849;1293;3068721;-64
2024/04/02 08:29:59;;;;;;;23.20;3.50;;;;;;;19.53;45.46;98601.83;82071;1294;3012959;-61
2024/04/02 08:32:26;;;;;;;28.90;4.10;;;;;;;19.67;45.29;98600.95;82101;1294;3011402;-62
2024/04/02 08:34:54;;;;;;;41.30;4.30;;;;;;;19.67;45.27;98603.41;80831;1294;3051926;-61
2024/04/02 08:37:20;;;;;;;24.00;3.40;;;;;;;19.65;44.90;98601.69;82095;1295;3013172;-63
2024/04/02 08:39:47;;;;;;;30.20;3.70;;;;;;;19.68;43.88;98598.88;82084;1294;3011315;-63
2024/04/02 08:42:15;;;;;;;30.10;4.50;;;;;;;19.72;42.93;98600.42;80815;1295;3017684;-62
2024/04/02 08:44:41;;;;;;;28.50;3.30;;;;;;;19.75;42.19;98594.46;82010;1295;3018286;-63
2024/04/02 08:47:08;;;;;;;31.90;5.00;;;;;;;20.03;41.72;98592.02;81911;1294;3011166;-60
2024/04/02 08:49:36;;;;;;;33.00;3.90;;;;;;;20.10;40.96;98587.64;80741;1295;3027575;-61
2024/04/02 08:52:03;;;;;;;33.30;4.20;;;;;;;20.11;40.51;98586.43;82102;1293;3018358;-63
2024/04/02 08:54:30;;;;;;;28.00;4.40;;;;;;;20.22;40.70;98575.23;82059;1295;3012696;-62
2024/04/02 08:56:58;;;;;;;17.60;3.50;;;;;;;20.44;40.67;98571.47;80831;1294;3069511;-61
2024/04/02 08:59:25;;;;;;;28.80;4.40;;;;;;;20.54;40.08;98554.83;82016;1294;3018724;-63
2024/04/02 09:01:54;;;;;;;37.50;3.60;;;;;;;20.73;40.69;98555.52;82090;1294;3011552;-66
2024/04/02 09:04:24;;;;;;;23.80;3.90;;;;;;;20.89;40.75;98556.14;80689;1298;3044156;-63
2024/04/02 09:06:51;;;;;;;41.70;4.50;;;;;;;20.91;40.28;98561.92;82080;1294;3011281;-63
2024/04/02 09:09:23;;;;;;;24.50;3.70;;;;;;;20.97;40.05;98546.11;82081;1295;3011450;-62
2024/04/02 09:11:51;;;;;;;17.20;3.20;;;;;;;20.98;39.15;98550.85;80813;1294;3060113;-62
2024/04/02 09:14:22;;;;;;;23.50;3.30;;;;;;;20.97;39.04;98551.27;82099;1294;3012836;-61
2024/04/02 09:16:54;;;;;;;35.70;4.00;;;;;;;21.29;38.84;98539.17;80846;1294;3051155;-61
2024/04/02 09:19:21;;;;;;;25.00;4.30;;;;;;;21.29;38.78;98544.14;82108;1294;3013264;-61
2024/04/02 09:21:49;;;;;;;31.80;3.60;;;;;;;21.27;39.07;98545.02;80829;1295;3017316;-62
2024/04/02 09:24:16;;;;;;;33.10;3.70;;;;;;;21.36;38.37;98552.52;82163;1294;3012740;-62
2024/04/02 09:26:42;;;;;;;29.50;4.20;;;;;;;21.31;38.23;98546.59;82067;1293;3011466;-62
2024/04/02 09:29:10;;;;;;;42.30;4.30;;;;;;;21.53;38.01;98529.27;80873;1294;3052624;-64
2024/04/02 09:31:37;;;;;;;30.00;4.90;;;;;;;21.68;37.66;98530.11;82025;1293;3012630;-62
2024/04/02 09:34:08;;;;;;;30.80;3.80;;;;;;;21.72;37.87;98531.81;82069;1295;3011368;-61
2024/04/02 09:36:43;;;;;;;33.80;3.30;;;;;;;21.99;37.55;98517.61;80818;1295;3048813;-62
2024/04/02 09:39:12;;;;;;;31.90;3.80;;;;;;;21.92;36.91;98523.34;80885;1294;3052480;-62
2024/04/02 09:41:40;;;;;;;25.90;3.70;;;;;;;21.86;36.81;98518.67;82076;1298;3012616;-63
2024/04/02 09:44:12;;;;;;;27.40;3.80;;;;;;;21.87;37.31;98523.33;81613;1294;3011188;-62
2024/04/02 09:46:39;;;;;;;35.60;4.30;;;;;;;21.88;36.90;98514.57;82106;1293;3012615;-62
2024/04/02 09:49:07;;;;;;;37.30;4.30;;;;;;;21.96;36.80;98516.31;80888;1295;3026964;-61
2024/04/02 09:51:34;;;;;;;59.30;5.10;;;;;;;22.00;36.44;98510.56;82050;1294;3013071;-61
2024/04/02 09:54:04;;;;;;;38.70;4.40;;;;;;;22.04;36.79;98505.94;82055;1294;3012918;-60
2024/04/02 09:56:33;;;;;;;20.60;3.40;;;;;;;22.31;36.69;98486.98;80788;1295;3042582;-60
2024/04/02 09:59:00;;;;;;;37.30;4.70;;;;;;;22.59;36.25;98468.04;82161;1295;3012721;-64
2024/04/02 10:01:28;;;;;;;39.40;4.40;;;;;;;22.61;36.43;98464.14;82001;1296;3011367;-61
2024/04/02 10:03:58;;;;;;;35.00;3.80;;;;;;;22.71;36.25;98463.34;80854;1294;3048877;-60
2024/04/02 10:06:27;;;;;;;28.50;4.80;;;;;;;22.78;36.16;98466.27;82101;1294;3013045;-64
2024/04/02 10:08:59;;;;;;;28.70;3.70;;;;;;;22.86;35.94;98470.23;80848;1295;3025805;-64
2024/04/02 10:11:38;;;;;;;26.50;4.50;;;;;;;22.91;35.90;98468.20;82107;1295;3012678;-61
2024/04/02 10:14:09;;;;;;;26.00;3.80;;;;;;;23.08;35.66;98463.02;80829;1295;3043329;-61
2024/04/02 10:16:40;;;;;;;27.50;4.30;;;;;;;23.10;35.85;98465.94;82088;1294;3011334;-61
2024/04/02 10:19:29;;;;;;;25.40;3.50;;;;;;;23.16;35.44;98457.96;80845;1295;3059560;-60
2024/04/02 10:21:57;;;;;;;28.60;3.80;;;;;;;23.31;34.70;98449.52;80842;1295;3042862;-62
2024/04/02 10:24:26;;;;;;;30.30;4.00;;;;;;;23.38;33.84;98457.15;82111;1294;3012792;-61
2024/04/02 10:26:56;;;;;;;30.60;4.40;;;;;;;23.39;33.68;98437.61;82123;1294;3011323;-62
2024/04/02 10:29:28;;;;;;;30.30;4.20;;;;;;;23.32;33.92;98433.11;80831;1293;3040692;-61
2024/04/02 10:31:56;;;;;;;30.10;4.10;;;;;;;23.42;33.77;98432.02;82040;1296;3012825;-61
2024/04/02 10:34:24;;;;;;;29.30;4.70;;;;;;;23.63;33.71;98421.60;80814;1295;3043756;-60
2024/04/02 10:36:51;;;;;;;27.60;4.10;;;;;;;23.79;33.32;98428.86;82125;1293;3013143;-61
2024/04/02 10:39:17;;;;;;;24.30;3.60;;;;;;;23.63;33.22;98422.38;82100;1295;3012626;-60
2024/04/02 10:41:45;;;;;;;29.70;4.10;;;;;;;23.60;33.20;98411.73;80861;1294;3017320;-61
2024/04/02 10:44:12;;;;;;;23.70;3.70;;;;;;;23.65;33.14;98412.49;82129;1294;3011232;-61
2024/04/02 10:46:39;;;;;;;30.70;4.00;;;;;;;23.71;33.10;98406.52;81958;1295;3012751;-61
2024/04/02 10:49:07;;;;;;;30.80;3.80;;;;;;;23.80;32.51;98403.15;80885;1294;3017748;-64
2024/04/02 10:51:34;;;;;;;31.60;3.30;;;;;;;24.07;32.32;98389.52;82108;1295;3013787;-60
2024/04/02 10:54:01;;;;;;;33.80;4.60;;;;;;;24.29;31.45;98384.36;82074;1294;3013229;-64
2024/04/02 10:56:30;;;;;;;26.80;4.20;;;;;;;24.36;30.40;98374.80;80851;1294;3018468;-62
2024/04/02 10:58:58;;;;;;;42.20;4.30;;;;;;;24.41;29.58;98386.52;82114;1294;3013384;-60
2024/04/02 11:01:27;;;;;;;25.30;3.80;;;;;;;24.55;29.02;98372.91;81564;1298;3011636;-60
2024/04/02 11:03:54;;;;;;;60.50;5.40;;;;;;;24.66;28.61;98373.61;82147;1295;3011182;-61
2024/04/02 11:06:21;;;;;;;42.00;4.70;;;;;;;24.66;28.82;98373.70;82102;1295;3012539;-62
2024/04/02 11:08:49;;;;;;;44.40;4.30;;;;;;;24.73;28.91;98372.23;80843;1294;3017099;-63
2024/04/02 11:11:22;;;;;;;35.30;4.30;;;;;;;25.03;28.53;98372.65;82134;1294;3018763;-61